sensor_id;sensor_type;location;lat;lon;timestamp;P1;durP1;ratioP1;P2;durP2;ratioP2
10403;SDS011;5248;47.374;8.486;2023-03-23T00:00:54;2.83;;;2.63;;
10403;SDS011;5248;47.374;8.486;2023-03-23T00:03:21;3.60;;;3.30;;
10403;SDS011;5248;47.374;8.486;2023-03-23T00:05:50;2.90;;;2.70;;
10403;SDS011;5248;47.374;8.486;2023-03-23T00:08:18;6.97;;;3.40;;
10403;SDS011;5248;47.374;8.486;2023-03-23T00:10:47;3.07;;;2.87;;
10403;SDS011;5248;47.374;8.486;2023-03-23T00:13:17;3.47;;;2.90;;
10403;SDS011;5248;47.374;8.486;2023-03-23T00:15:45;3.23;;;2.93;;
10403;SDS011;5248;47.374;8.486;2023-03-23T00:18:13;3.27;;;2.97;;
10403;SDS011;5248;47.374;8.486;2023-03-23T00:20:48;4.57;;;2.83;;
10403;SDS011;5248;47.374;8.486;2023-03-23T00:23:15;2.93;;;2.50;;
10403;SDS011;5248;47.374;8.486;2023-03-23T00:25:48;2.70;;;2.50;;
10403;SDS011;5248;47.374;8.486;2023-03-23T00:28:18;2.90;;;2.60;;
10403;SDS011;5248;47.374;8.486;2023-03-23T00:30:53;4.27;;;2.30;;
10403;SDS011;5248;47.374;8.486;2023-03-23T00:33:21;2.83;;;2.63;;
10403;SDS011;5248;47.374;8.486;2023-03-23T00:35:48;3.03;;;2.70;;
10403;SDS011;5248;47.374;8.486;2023-03-23T00:38:17;2.93;;;2.53;;
10403;SDS011;5248;47.374;8.486;2023-03-23T00:40:46;3.10;;;2.87;;
10403;SDS011;5248;47.374;8.486;2023-03-23T00:43:13;8.97;;;2.70;;
10403;SDS011;5248;47.374;8.486;2023-03-23T00:45:40;3.13;;;2.73;;
10403;SDS011;5248;47.374;8.486;2023-03-23T00:48:06;4.17;;;2.90;;
10403;SDS011;5248;47.374;8.486;2023-03-23T00:50:33;3.27;;;2.73;;
10403;SDS011;5248;47.374;8.486;2023-03-23T00:53:00;3.90;;;2.80;;
10403;SDS011;5248;47.374;8.486;2023-03-23T00:55:26;4.40;;;3.43;;
10403;SDS011;5248;47.374;8.486;2023-03-23T00:57:56;3.20;;;2.97;;
10403;SDS011;5248;47.374;8.486;2023-03-23T01:00:23;4.03;;;3.30;;
10403;SDS011;5248;47.374;8.486;2023-03-23T01:02:49;3.23;;;2.93;;
10403;SDS011;5248;47.374;8.486;2023-03-23T01:05:17;3.87;;;2.90;;
10403;SDS011;5248;47.374;8.486;2023-03-23T01:07:43;3.47;;;3.17;;
10403;SDS011;5248;47.374;8.486;2023-03-23T01:10:11;3.13;;;2.90;;
10403;SDS011;5248;47.374;8.486;2023-03-23T01:12:41;4.07;;;3.13;;
10403;SDS011;5248;47.374;8.486;2023-03-23T01:15:12;4.07;;;2.87;;
10403;SDS011;5248;47.374;8.486;2023-03-23T01:17:41;3.07;;;2.80;;
10403;SDS011;5248;47.374;8.486;2023-03-23T01:20:09;4.97;;;3.00;;
10403;SDS011;5248;47.374;8.486;2023-03-23T01:22:37;2.47;;;2.27;;
10403;SDS011;5248;47.374;8.486;2023-03-23T01:25:04;3.33;;;2.37;;
10403;SDS011;5248;47.374;8.486;2023-03-23T01:27:31;2.60;;;2.40;;
10403;SDS011;5248;47.374;8.486;2023-03-23T01:29:57;2.47;;;2.27;;
10403;SDS011;5248;47.374;8.486;2023-03-23T01:32:25;2.30;;;2.10;;
10403;SDS011;5248;47.374;8.486;2023-03-23T01:34:54;2.50;;;2.30;;
10403;SDS011;5248;47.374;8.486;2023-03-23T01:37:21;3.07;;;2.00;;
10403;SDS011;5248;47.374;8.486;2023-03-23T01:39:52;2.63;;;2.43;;
10403;SDS011;5248;47.374;8.486;2023-03-23T01:42:20;2.37;;;2.17;;
10403;SDS011;5248;47.374;8.486;2023-03-23T01:47:54;2.47;;;2.27;;
10403;SDS011;5248;47.374;8.486;2023-03-23T01:50:23;2.70;;;2.50;;
10403;SDS011;5248;47.374;8.486;2023-03-23T01:52:50;2.70;;;2.50;;
10403;SDS011;5248;47.374;8.486;2023-03-23T01:55:17;2.67;;;2.50;;
10403;SDS011;5248;47.374;8.486;2023-03-23T01:57:45;2.47;;;2.37;;
10403;SDS011;5248;47.374;8.486;2023-03-23T02:00:12;2.50;;;2.30;;
10403;SDS011;5248;47.374;8.486;2023-03-23T02:02:40;3.10;;;2.67;;
10403;SDS011;5248;47.374;8.486;2023-03-23T02:05:10;3.03;;;2.73;;
10403;SDS011;5248;47.374;8.486;2023-03-23T02:07:38;3.17;;;2.90;;
10403;SDS011;5248;47.374;8.486;2023-03-23T02:10:06;3.23;;;2.90;;
10403;SDS011;5248;47.374;8.486;2023-03-23T02:12:33;3.23;;;2.83;;
10403;SDS011;5248;47.374;8.486;2023-03-23T02:15:00;3.10;;;2.83;;
10403;SDS011;5248;47.374;8.486;2023-03-23T02:17:29;3.17;;;2.70;;
10403;SDS011;5248;47.374;8.486;2023-03-23T02:20:02;3.20;;;2.60;;
10403;SDS011;5248;47.374;8.486;2023-03-23T02:22:49;4.17;;;3.10;;
10403;SDS011;5248;47.374;8.486;2023-03-23T02:25:29;3.33;;;2.87;;
10403;SDS011;5248;47.374;8.486;2023-03-23T02:30:58;3.53;;;3.23;;
10403;SDS011;5248;47.374;8.486;2023-03-23T02:33:43;4.00;;;3.20;;
10403;SDS011;5248;47.374;8.486;2023-03-23T02:36:16;3.27;;;3.07;;
10403;SDS011;5248;47.374;8.486;2023-03-23T02:38:49;4.70;;;3.37;;
10403;SDS011;5248;47.374;8.486;2023-03-23T02:41:20;3.87;;;3.33;;
10403;SDS011;5248;47.374;8.486;2023-03-23T02:43:49;3.60;;;3.30;;
10403;SDS011;5248;47.374;8.486;2023-03-23T02:46:16;3.50;;;3.20;;
10403;SDS011;5248;47.374;8.486;2023-03-23T02:48:44;4.00;;;3.60;;
10403;SDS011;5248;47.374;8.486;2023-03-23T02:51:13;3.57;;;3.27;;
10403;SDS011;5248;47.374;8.486;2023-03-23T02:53:41;4.40;;;3.40;;
10403;SDS011;5248;47.374;8.486;2023-03-23T02:56:08;3.67;;;3.33;;
10403;SDS011;5248;47.374;8.486;2023-03-23T02:58:35;4.47;;;3.30;;
10403;SDS011;5248;47.374;8.486;2023-03-23T03:01:45;3.70;;;3.40;;
10403;SDS011;5248;47.374;8.486;2023-03-23T03:04:18;3.67;;;3.37;;
10403;SDS011;5248;47.374;8.486;2023-03-23T03:06:51;3.67;;;3.30;;
10403;SDS011;5248;47.374;8.486;2023-03-23T03:09:26;3.57;;;3.27;;
10403;SDS011;5248;47.374;8.486;2023-03-23T03:11:58;3.70;;;3.40;;
10403;SDS011;5248;47.374;8.486;2023-03-23T03:14:33;3.73;;;3.43;;
10403;SDS011;5248;47.374;8.486;2023-03-23T03:17:04;4.83;;;3.03;;
10403;SDS011;5248;47.374;8.486;2023-03-23T03:19:35;3.60;;;3.40;;
10403;SDS011;5248;47.374;8.486;2023-03-23T03:22:04;3.43;;;3.13;;
10403;SDS011;5248;47.374;8.486;2023-03-23T03:24:32;3.07;;;2.73;;
10403;SDS011;5248;47.374;8.486;2023-03-23T03:27:02;4.37;;;2.77;;
10403;SDS011;5248;47.374;8.486;2023-03-23T03:29:32;3.07;;;2.40;;
10403;SDS011;5248;47.374;8.486;2023-03-23T03:32:01;2.77;;;2.10;;
10403;SDS011;5248;47.374;8.486;2023-03-23T03:34:30;2.30;;;2.10;;
10403;SDS011;5248;47.374;8.486;2023-03-23T03:36:58;3.93;;;2.07;;
10403;SDS011;5248;47.374;8.486;2023-03-23T03:39:26;1.50;;;1.40;;
10403;SDS011;5248;47.374;8.486;2023-03-23T03:41:53;3.57;;;2.00;;
10403;SDS011;5248;47.374;8.486;2023-03-23T03:44:20;1.77;;;1.50;;
10403;SDS011;5248;47.374;8.486;2023-03-23T03:46:47;2.00;;;1.23;;
10403;SDS011;5248;47.374;8.486;2023-03-23T03:49:14;2.90;;;1.60;;
10403;SDS011;5248;47.374;8.486;2023-03-23T03:51:41;1.80;;;1.27;;
10403;SDS011;5248;47.374;8.486;2023-03-23T03:54:09;1.30;;;1.20;;
10403;SDS011;5248;47.374;8.486;2023-03-23T03:56:36;3.33;;;1.27;;
10403;SDS011;5248;47.374;8.486;2023-03-23T03:59:05;1.47;;;1.37;;
10403;SDS011;5248;47.374;8.486;2023-03-23T04:01:33;3.30;;;1.53;;
10403;SDS011;5248;47.374;8.486;2023-03-23T04:03:59;3.33;;;1.57;;
10403;SDS011;5248;47.374;8.486;2023-03-23T04:06:26;2.20;;;1.50;;
10403;SDS011;5248;47.374;8.486;2023-03-23T04:08:53;1.43;;;1.37;;
10403;SDS011;5248;47.374;8.486;2023-03-23T04:11:21;1.53;;;1.30;;
10403;SDS011;5248;47.374;8.486;2023-03-23T04:13:48;3.20;;;1.30;;
10403;SDS011;5248;47.374;8.486;2023-03-23T04:16:14;1.90;;;1.43;;
10403;SDS011;5248;47.374;8.486;2023-03-23T04:18:43;1.30;;;1.20;;
10403;SDS011;5248;47.374;8.486;2023-03-23T04:21:10;2.97;;;1.40;;
10403;SDS011;5248;47.374;8.486;2023-03-23T04:23:36;1.10;;;1.10;;
10403;SDS011;5248;47.374;8.486;2023-03-23T04:26:03;2.70;;;1.50;;
10403;SDS011;5248;47.374;8.486;2023-03-23T04:28:31;2.07;;;1.10;;
10403;SDS011;5248;47.374;8.486;2023-03-23T04:30:59;2.10;;;1.10;;
10403;SDS011;5248;47.374;8.486;2023-03-23T04:33:28;1.67;;;1.47;;
10403;SDS011;5248;47.374;8.486;2023-03-23T04:35:55;2.13;;;1.47;;
10403;SDS011;5248;47.374;8.486;2023-03-23T04:38:23;1.60;;;1.30;;
10403;SDS011;5248;47.374;8.486;2023-03-23T04:40:54;2.20;;;1.60;;
10403;SDS011;5248;47.374;8.486;2023-03-23T04:43:21;2.13;;;1.40;;
10403;SDS011;5248;47.374;8.486;2023-03-23T04:45:53;1.67;;;1.57;;
10403;SDS011;5248;47.374;8.486;2023-03-23T04:48:21;2.27;;;1.90;;
10403;SDS011;5248;47.374;8.486;2023-03-23T04:50:47;2.00;;;1.90;;
10403;SDS011;5248;47.374;8.486;2023-03-23T04:53:16;1.90;;;1.80;;
10403;SDS011;5248;47.374;8.486;2023-03-23T04:55:43;2.00;;;1.90;;
10403;SDS011;5248;47.374;8.486;2023-03-23T04:58:09;2.23;;;1.93;;
10403;SDS011;5248;47.374;8.486;2023-03-23T05:00:37;2.20;;;2.07;;
10403;SDS011;5248;47.374;8.486;2023-03-23T05:03:05;1.80;;;1.70;;
10403;SDS011;5248;47.374;8.486;2023-03-23T05:05:33;3.40;;;2.20;;
10403;SDS011;5248;47.374;8.486;2023-03-23T05:08:00;2.50;;;2.30;;
10403;SDS011;5248;47.374;8.486;2023-03-23T05:10:27;4.27;;;2.60;;
10403;SDS011;5248;47.374;8.486;2023-03-23T05:12:55;2.93;;;2.60;;
10403;SDS011;5248;47.374;8.486;2023-03-23T05:15:21;2.20;;;2.10;;
10403;SDS011;5248;47.374;8.486;2023-03-23T05:17:50;2.17;;;2.03;;
10403;SDS011;5248;47.374;8.486;2023-03-23T05:20:18;2.07;;;1.57;;
10403;SDS011;5248;47.374;8.486;2023-03-23T05:22:47;2.97;;;1.70;;
10403;SDS011;5248;47.374;8.486;2023-03-23T05:25:14;3.27;;;2.17;;
10403;SDS011;5248;47.374;8.486;2023-03-23T05:27:44;4.53;;;2.57;;
10403;SDS011;5248;47.374;8.486;2023-03-23T05:30:14;3.20;;;2.50;;
10403;SDS011;5248;47.374;8.486;2023-03-23T05:32:41;2.97;;;2.50;;
10403;SDS011;5248;47.374;8.486;2023-03-23T05:35:10;3.63;;;2.83;;
10403;SDS011;5248;47.374;8.486;2023-03-23T05:37:38;4.60;;;2.50;;
10403;SDS011;5248;47.374;8.486;2023-03-23T05:40:05;4.00;;;2.83;;
10403;SDS011;5248;47.374;8.486;2023-03-23T05:42:33;3.13;;;2.83;;
10403;SDS011;5248;47.374;8.486;2023-03-23T05:45:00;2.83;;;2.63;;
10403;SDS011;5248;47.374;8.486;2023-03-23T05:47:27;3.80;;;3.20;;
10403;SDS011;5248;47.374;8.486;2023-03-23T05:49:55;2.50;;;2.40;;
10403;SDS011;5248;47.374;8.486;2023-03-23T05:52:21;3.10;;;2.80;;
10403;SDS011;5248;47.374;8.486;2023-03-23T05:54:51;3.23;;;2.33;;
10403;SDS011;5248;47.374;8.486;2023-03-23T05:57:18;3.53;;;2.60;;
10403;SDS011;5248;47.374;8.486;2023-03-23T05:59:46;2.50;;;2.30;;
10403;SDS011;5248;47.374;8.486;2023-03-23T06:02:13;3.40;;;2.80;;
10403;SDS011;5248;47.374;8.486;2023-03-23T06:04:39;3.13;;;2.57;;
10403;SDS011;5248;47.374;8.486;2023-03-23T06:07:06;2.43;;;2.23;;
10403;SDS011;5248;47.374;8.486;2023-03-23T06:09:37;2.20;;;2.00;;
10403;SDS011;5248;47.374;8.486;2023-03-23T06:12:05;2.30;;;2.10;;
10403;SDS011;5248;47.374;8.486;2023-03-23T06:14:32;2.20;;;1.90;;
10403;SDS011;5248;47.374;8.486;2023-03-23T06:16:59;2.20;;;2.00;;
10403;SDS011;5248;47.374;8.486;2023-03-23T06:19:26;1.90;;;1.80;;
10403;SDS011;5248;47.374;8.486;2023-03-23T06:21:53;1.73;;;1.63;;
10403;SDS011;5248;47.374;8.486;2023-03-23T06:24:20;2.10;;;1.77;;
10403;SDS011;5248;47.374;8.486;2023-03-23T06:26:47;2.10;;;1.90;;
10403;SDS011;5248;47.374;8.486;2023-03-23T06:29:15;1.80;;;1.70;;
10403;SDS011;5248;47.374;8.486;2023-03-23T06:31:42;2.57;;;1.80;;
10403;SDS011;5248;47.374;8.486;2023-03-23T06:34:10;1.97;;;1.83;;
10403;SDS011;5248;47.374;8.486;2023-03-23T06:36:37;1.40;;;1.30;;
10403;SDS011;5248;47.374;8.486;2023-03-23T06:39:04;3.63;;;3.33;;
10403;SDS011;5248;47.374;8.486;2023-03-23T06:41:34;3.47;;;3.00;;
10403;SDS011;5248;47.374;8.486;2023-03-23T06:44:01;2.30;;;2.10;;
10403;SDS011;5248;47.374;8.486;2023-03-23T06:46:29;2.87;;;1.80;;
10403;SDS011;5248;47.374;8.486;2023-03-23T06:48:57;2.00;;;1.80;;
10403;SDS011;5248;47.374;8.486;2023-03-23T06:51:24;2.00;;;1.90;;
10403;SDS011;5248;47.374;8.486;2023-03-23T06:53:51;2.42;;;1.65;;
10403;SDS011;5248;47.374;8.486;2023-03-23T06:56:17;1.75;;;1.63;;
10403;SDS011;5248;47.374;8.486;2023-03-23T06:58:44;5.20;;;3.17;;
10403;SDS011;5248;47.374;8.486;2023-03-23T07:01:11;5.13;;;2.95;;
10403;SDS011;5248;47.374;8.486;2023-03-23T07:03:41;1.80;;;1.70;;
10403;SDS011;5248;47.374;8.486;2023-03-23T07:06:08;1.70;;;1.60;;
10403;SDS011;5248;47.374;8.486;2023-03-23T07:08:34;1.70;;;1.60;;
10403;SDS011;5248;47.374;8.486;2023-03-23T07:11:03;2.10;;;1.60;;
10403;SDS011;5248;47.374;8.486;2023-03-23T07:13:30;2.10;;;1.85;;
10403;SDS011;5248;47.374;8.486;2023-03-23T07:15:57;3.47;;;1.65;;
10403;SDS011;5248;47.374;8.486;2023-03-23T07:18:24;2.10;;;1.90;;
10403;SDS011;5248;47.374;8.486;2023-03-23T07:20:52;1.83;;;1.73;;
10403;SDS011;5248;47.374;8.486;2023-03-23T07:23:19;2.30;;;1.92;;
10403;SDS011;5248;47.374;8.486;2023-03-23T07:25:46;2.15;;;1.75;;
10403;SDS011;5248;47.374;8.486;2023-03-23T07:28:13;2.28;;;1.70;;
10403;SDS011;5248;47.374;8.486;2023-03-23T07:30:40;4.15;;;1.88;;
10403;SDS011;5248;47.374;8.486;2023-03-23T07:33:07;4.22;;;1.90;;
10403;SDS011;5248;47.374;8.486;2023-03-23T07:35:35;2.45;;;1.45;;
10403;SDS011;5248;47.374;8.486;2023-03-23T07:38:04;2.70;;;1.80;;
10403;SDS011;5248;47.374;8.486;2023-03-23T07:40:32;1.98;;;1.63;;
10403;SDS011;5248;47.374;8.486;2023-03-23T07:42:59;1.60;;;1.50;;
10403;SDS011;5248;47.374;8.486;2023-03-23T07:45:26;4.40;;;1.75;;
10403;SDS011;5248;47.374;8.486;2023-03-23T07:47:53;1.65;;;1.55;;
10403;SDS011;5248;47.374;8.486;2023-03-23T07:50:20;1.75;;;1.65;;
10403;SDS011;5248;47.374;8.486;2023-03-23T07:52:48;2.00;;;1.85;;
10403;SDS011;5248;47.374;8.486;2023-03-23T07:55:17;1.83;;;1.70;;
10403;SDS011;5248;47.374;8.486;2023-03-23T07:57:43;2.67;;;1.90;;
10403;SDS011;5248;47.374;8.486;2023-03-23T08:00:10;2.20;;;2.00;;
10403;SDS011;5248;47.374;8.486;2023-03-23T08:02:40;5.22;;;3.10;;
10403;SDS011;5248;47.374;8.486;2023-03-23T08:05:07;3.08;;;2.88;;
10403;SDS011;5248;47.374;8.486;2023-03-23T08:07:35;3.47;;;2.53;;
10403;SDS011;5248;47.374;8.486;2023-03-23T08:10:02;2.38;;;1.90;;
10403;SDS011;5248;47.374;8.486;2023-03-23T08:12:30;2.40;;;1.90;;
10403;SDS011;5248;47.374;8.486;2023-03-23T08:14:56;1.50;;;1.40;;
10403;SDS011;5248;47.374;8.486;2023-03-23T08:17:24;1.95;;;1.83;;
10403;SDS011;5248;47.374;8.486;2023-03-23T08:19:50;1.80;;;1.70;;
10403;SDS011;5248;47.374;8.486;2023-03-23T08:22:17;3.15;;;1.75;;
10403;SDS011;5248;47.374;8.486;2023-03-23T08:24:44;1.75;;;1.65;;
10403;SDS011;5248;47.374;8.486;2023-03-23T08:27:10;2.25;;;2.08;;
10403;SDS011;5248;47.374;8.486;2023-03-23T08:29:39;2.35;;;1.80;;
10403;SDS011;5248;47.374;8.486;2023-03-23T08:32:06;1.80;;;1.67;;
10403;SDS011;5248;47.374;8.486;2023-03-23T08:34:32;1.50;;;1.40;;
10403;SDS011;5248;47.374;8.486;2023-03-23T08:36:59;2.03;;;1.90;;
10403;SDS011;5248;47.374;8.486;2023-03-23T08:39:25;2.22;;;2.10;;
10403;SDS011;5248;47.374;8.486;2023-03-23T08:41:52;2.60;;;1.88;;
10403;SDS011;5248;47.374;8.486;2023-03-23T08:44:19;1.75;;;1.65;;
10403;SDS011;5248;47.374;8.486;2023-03-23T08:46:47;2.15;;;1.65;;
10403;SDS011;5248;47.374;8.486;2023-03-23T08:49:19;1.58;;;1.48;;
10403;SDS011;5248;47.374;8.486;2023-03-23T08:51:46;1.92;;;1.75;;
10403;SDS011;5248;47.374;8.486;2023-03-23T08:54:13;2.15;;;1.83;;
10403;SDS011;5248;47.374;8.486;2023-03-23T08:56:39;4.13;;;3.72;;
10403;SDS011;5248;47.374;8.486;2023-03-23T08:59:06;1.75;;;1.65;;
10403;SDS011;5248;47.374;8.486;2023-03-23T09:01:33;2.38;;;1.52;;
10403;SDS011;5248;47.374;8.486;2023-03-23T09:04:01;1.67;;;1.58;;
10403;SDS011;5248;47.374;8.486;2023-03-23T09:06:28;1.98;;;1.80;;
10403;SDS011;5248;47.374;8.486;2023-03-23T09:08:55;1.88;;;1.77;;
10403;SDS011;5248;47.374;8.486;2023-03-23T09:11:21;1.80;;;1.70;;
10403;SDS011;5248;47.374;8.486;2023-03-23T09:13:48;1.85;;;1.70;;
10403;SDS011;5248;47.374;8.486;2023-03-23T09:16:14;1.70;;;1.60;;
10403;SDS011;5248;47.374;8.486;2023-03-23T09:18:41;2.08;;;1.83;;
10403;SDS011;5248;47.374;8.486;2023-03-23T09:21:09;1.98;;;1.60;;
10403;SDS011;5248;47.374;8.486;2023-03-23T09:23:35;3.15;;;1.70;;
10403;SDS011;5248;47.374;8.486;2023-03-23T09:26:02;1.83;;;1.73;;
10403;SDS011;5248;47.374;8.486;2023-03-23T09:28:29;5.03;;;2.00;;
10403;SDS011;5248;47.374;8.486;2023-03-23T09:30:57;2.22;;;2.05;;
10403;SDS011;5248;47.374;8.486;2023-03-23T09:33:24;1.30;;;1.20;;
10403;SDS011;5248;47.374;8.486;2023-03-23T09:35:51;2.50;;;1.63;;
10403;SDS011;5248;47.374;8.486;2023-03-23T09:38:18;1.90;;;1.80;;
10403;SDS011;5248;47.374;8.486;2023-03-23T09:40:47;1.88;;;1.73;;
10403;SDS011;5248;47.374;8.486;2023-03-23T09:46:10;2.17;;;1.70;;
10403;SDS011;5248;47.374;8.486;2023-03-23T09:48:46;1.95;;;1.75;;
10403;SDS011;5248;47.374;8.486;2023-03-23T09:51:21;2.00;;;1.48;;
10403;SDS011;5248;47.374;8.486;2023-03-23T09:53:55;1.80;;;1.70;;
10403;SDS011;5248;47.374;8.486;2023-03-23T09:56:23;3.33;;;1.83;;
10403;SDS011;5248;47.374;8.486;2023-03-23T09:58:53;1.90;;;1.80;;
10403;SDS011;5248;47.374;8.486;2023-03-23T10:01:22;2.50;;;1.33;;
10403;SDS011;5248;47.374;8.486;2023-03-23T10:03:51;3.58;;;1.67;;
10403;SDS011;5248;47.374;8.486;2023-03-23T10:06:21;1.85;;;1.50;;
10403;SDS011;5248;47.374;8.486;2023-03-23T10:08:49;2.30;;;1.58;;
10403;SDS011;5248;47.374;8.486;2023-03-23T10:11:21;2.55;;;1.70;;
10403;SDS011;5248;47.374;8.486;2023-03-23T10:14:02;2.35;;;1.60;;
10403;SDS011;5248;47.374;8.486;2023-03-23T10:16:38;3.42;;;2.10;;
10403;SDS011;5248;47.374;8.486;2023-03-23T10:19:10;3.80;;;1.70;;
10403;SDS011;5248;47.374;8.486;2023-03-23T10:21:40;3.20;;;1.85;;
10403;SDS011;5248;47.374;8.486;2023-03-23T10:24:09;2.38;;;1.95;;
10403;SDS011;5248;47.374;8.486;2023-03-23T10:26:40;2.35;;;1.88;;
10403;SDS011;5248;47.374;8.486;2023-03-23T10:29:13;2.30;;;1.92;;
10403;SDS011;5248;47.374;8.486;2023-03-23T10:31:43;1.90;;;1.80;;
10403;SDS011;5248;47.374;8.486;2023-03-23T10:34:13;4.00;;;2.03;;
10403;SDS011;5248;47.374;8.486;2023-03-23T10:36:50;2.45;;;1.80;;
10403;SDS011;5248;47.374;8.486;2023-03-23T10:39:20;2.17;;;1.98;;
10403;SDS011;5248;47.374;8.486;2023-03-23T10:41:49;4.03;;;2.60;;
10403;SDS011;5248;47.374;8.486;2023-03-23T10:44:19;2.13;;;1.77;;
10403;SDS011;5248;47.374;8.486;2023-03-23T10:46:48;4.25;;;2.40;;
10403;SDS011;5248;47.374;8.486;2023-03-23T10:49:20;1.98;;;1.88;;
10403;SDS011;5248;47.374;8.486;2023-03-23T10:51:51;1.95;;;1.85;;
10403;SDS011;5248;47.374;8.486;2023-03-23T10:54:25;1.98;;;1.88;;
10403;SDS011;5248;47.374;8.486;2023-03-23T10:56:54;2.15;;;1.98;;
10403;SDS011;5248;47.374;8.486;2023-03-23T10:59:25;3.25;;;1.83;;
10403;SDS011;5248;47.374;8.486;2023-03-23T11:01:54;1.95;;;1.85;;
10403;SDS011;5248;47.374;8.486;2023-03-23T11:04:21;2.05;;;1.88;;
10403;SDS011;5248;47.374;8.486;2023-03-23T11:06:49;2.75;;;1.73;;
10403;SDS011;5248;47.374;8.486;2023-03-23T11:09:18;2.17;;;2.08;;
10403;SDS011;5248;47.374;8.486;2023-03-23T11:11:48;2.00;;;1.90;;
10403;SDS011;5248;47.374;8.486;2023-03-23T11:14:18;2.53;;;2.33;;
10403;SDS011;5248;47.374;8.486;2023-03-23T11:16:50;2.03;;;1.83;;
10403;SDS011;5248;47.374;8.486;2023-03-23T11:19:21;2.08;;;1.88;;
10403;SDS011;5248;47.374;8.486;2023-03-23T11:21:49;1.63;;;1.52;;
10403;SDS011;5248;47.374;8.486;2023-03-23T11:24:17;2.05;;;1.95;;
10403;SDS011;5248;47.374;8.486;2023-03-23T11:26:44;3.65;;;2.00;;
10403;SDS011;5248;47.374;8.486;2023-03-23T11:29:13;3.03;;;1.95;;
10403;SDS011;5248;47.374;8.486;2023-03-23T11:31:42;2.03;;;1.92;;
10403;SDS011;5248;47.374;8.486;2023-03-23T11:34:13;2.67;;;1.85;;
10403;SDS011;5248;47.374;8.486;2023-03-23T11:36:41;2.55;;;1.88;;
10403;SDS011;5248;47.374;8.486;2023-03-23T11:39:19;2.03;;;1.92;;
10403;SDS011;5248;47.374;8.486;2023-03-23T11:41:49;1.80;;;1.70;;
10403;SDS011;5248;47.374;8.486;2023-03-23T11:44:15;2.70;;;1.90;;
10403;SDS011;5248;47.374;8.486;2023-03-23T11:46:46;1.98;;;1.77;;
10403;SDS011;5248;47.374;8.486;2023-03-23T11:49:18;2.13;;;1.50;;
10403;SDS011;5248;47.374;8.486;2023-03-23T11:51:49;2.15;;;1.75;;
10403;SDS011;5248;47.374;8.486;2023-03-23T11:54:19;1.73;;;1.63;;
10403;SDS011;5248;47.374;8.486;2023-03-23T11:56:56;2.08;;;1.70;;
10403;SDS011;5248;47.374;8.486;2023-03-23T11:59:26;1.80;;;1.70;;
10403;SDS011;5248;47.374;8.486;2023-03-23T12:02:04;1.85;;;1.75;;
10403;SDS011;5248;47.374;8.486;2023-03-23T12:04:50;1.50;;;1.42;;
10403;SDS011;5248;47.374;8.486;2023-03-23T12:07:31;1.55;;;1.45;;
10403;SDS011;5248;47.374;8.486;2023-03-23T12:10:06;1.92;;;1.83;;
10403;SDS011;5248;47.374;8.486;2023-03-23T12:12:39;1.60;;;1.50;;
10403;SDS011;5248;47.374;8.486;2023-03-23T12:15:12;3.17;;;1.73;;
10403;SDS011;5248;47.374;8.486;2023-03-23T12:17:51;1.80;;;1.70;;
10403;SDS011;5248;47.374;8.486;2023-03-23T12:20:26;2.88;;;1.80;;
10403;SDS011;5248;47.374;8.486;2023-03-23T12:23:01;4.38;;;1.85;;
10403;SDS011;5248;47.374;8.486;2023-03-23T12:25:37;2.00;;;1.75;;
10403;SDS011;5248;47.374;8.486;2023-03-23T12:28:11;3.40;;;2.00;;
10403;SDS011;5248;47.374;8.486;2023-03-23T12:30:45;2.78;;;1.90;;
10403;SDS011;5248;47.374;8.486;2023-03-23T12:33:21;2.13;;;2.00;;
10403;SDS011;5248;47.374;8.486;2023-03-23T12:36:02;2.03;;;1.92;;
10403;SDS011;5248;47.374;8.486;2023-03-23T12:38:52;1.83;;;1.70;;
10403;SDS011;5248;47.374;8.486;2023-03-23T12:41:26;1.80;;;1.70;;
10403;SDS011;5248;47.374;8.486;2023-03-23T12:43:57;1.70;;;1.60;;
10403;SDS011;5248;47.374;8.486;2023-03-23T12:46:32;2.45;;;1.75;;
10403;SDS011;5248;47.374;8.486;2023-03-23T12:49:09;1.60;;;1.50;;
10403;SDS011;5248;47.374;8.486;2023-03-23T12:51:42;2.15;;;1.73;;
10403;SDS011;5248;47.374;8.486;2023-03-23T12:54:13;1.73;;;1.63;;
10403;SDS011;5248;47.374;8.486;2023-03-23T12:56:45;1.73;;;1.63;;
10403;SDS011;5248;47.374;8.486;2023-03-23T12:59:17;3.65;;;1.67;;
10403;SDS011;5248;47.374;8.486;2023-03-23T13:01:48;1.98;;;1.80;;
10403;SDS011;5248;47.374;8.486;2023-03-23T13:04:21;1.83;;;1.73;;
10403;SDS011;5248;47.374;8.486;2023-03-23T13:06:49;3.55;;;2.35;;
10403;SDS011;5248;47.374;8.486;2023-03-23T13:09:17;1.63;;;1.52;;
10403;SDS011;5248;47.374;8.486;2023-03-23T13:11:47;2.70;;;2.15;;
10403;SDS011;5248;47.374;8.486;2023-03-23T13:14:17;2.47;;;2.13;;
10403;SDS011;5248;47.374;8.486;2023-03-23T13:16:52;2.08;;;1.88;;
10403;SDS011;5248;47.374;8.486;2023-03-23T13:19:26;1.52;;;1.50;;
10403;SDS011;5248;47.374;8.486;2023-03-23T13:21:57;1.98;;;1.75;;
10403;SDS011;5248;47.374;8.486;2023-03-23T13:24:28;2.15;;;2.05;;
10403;SDS011;5248;47.374;8.486;2023-03-23T13:26:56;1.60;;;1.50;;
10403;SDS011;5248;47.374;8.486;2023-03-23T13:29:26;3.28;;;1.77;;
10403;SDS011;5248;47.374;8.486;2023-03-23T13:32:03;2.20;;;2.00;;
10403;SDS011;5248;47.374;8.486;2023-03-23T13:34:32;2.78;;;1.80;;
10403;SDS011;5248;47.374;8.486;2023-03-23T13:37:02;4.65;;;2.25;;
10403;SDS011;5248;47.374;8.486;2023-03-23T13:39:37;6.28;;;2.17;;
10403;SDS011;5248;47.374;8.486;2023-03-23T13:42:18;2.22;;;2.03;;
10403;SDS011;5248;47.374;8.486;2023-03-23T13:44:54;4.68;;;2.13;;
10403;SDS011;5248;47.374;8.486;2023-03-23T13:47:26;1.80;;;1.70;;
10403;SDS011;5248;47.374;8.486;2023-03-23T13:50:08;2.42;;;1.80;;
10403;SDS011;5248;47.374;8.486;2023-03-23T13:52:38;1.65;;;1.50;;
10403;SDS011;5248;47.374;8.486;2023-03-23T13:55:29;2.70;;;1.40;;
10403;SDS011;5248;47.374;8.486;2023-03-23T13:57:57;2.13;;;1.63;;
10403;SDS011;5248;47.374;8.486;2023-03-23T14:00:37;2.03;;;1.88;;
10403;SDS011;5248;47.374;8.486;2023-03-23T14:03:13;2.42;;;2.22;;
10403;SDS011;5248;47.374;8.486;2023-03-23T14:05:43;2.30;;;1.75;;
10403;SDS011;5248;47.374;8.486;2023-03-23T14:08:12;2.17;;;1.48;;
10403;SDS011;5248;47.374;8.486;2023-03-23T14:10:41;1.95;;;1.60;;
10403;SDS011;5248;47.374;8.486;2023-03-23T14:13:14;1.73;;;1.63;;
10403;SDS011;5248;47.374;8.486;2023-03-23T14:15:44;1.65;;;1.42;;
10403;SDS011;5248;47.374;8.486;2023-03-23T14:18:13;1.75;;;1.65;;
10403;SDS011;5248;47.374;8.486;2023-03-23T14:20:41;2.28;;;1.55;;
10403;SDS011;5248;47.374;8.486;2023-03-23T14:23:14;1.60;;;1.50;;
10403;SDS011;5248;47.374;8.486;2023-03-23T14:25:43;1.52;;;1.42;;
10403;SDS011;5248;47.374;8.486;2023-03-23T14:28:17;1.95;;;1.80;;
10403;SDS011;5248;47.374;8.486;2023-03-23T14:30:45;1.50;;;1.40;;
10403;SDS011;5248;47.374;8.486;2023-03-23T14:33:12;1.95;;;1.85;;
10403;SDS011;5248;47.374;8.486;2023-03-23T14:35:40;2.20;;;1.83;;
10403;SDS011;5248;47.374;8.486;2023-03-23T14:38:11;2.50;;;1.73;;
10403;SDS011;5248;47.374;8.486;2023-03-23T14:40:43;2.40;;;1.80;;
10403;SDS011;5248;47.374;8.486;2023-03-23T14:43:10;2.67;;;1.58;;
10403;SDS011;5248;47.374;8.486;2023-03-23T14:45:37;2.17;;;1.52;;
10403;SDS011;5248;47.374;8.486;2023-03-23T14:48:05;2.13;;;1.83;;
10403;SDS011;5248;47.374;8.486;2023-03-23T14:50:36;1.90;;;1.80;;
10403;SDS011;5248;47.374;8.486;2023-03-23T14:53:10;1.60;;;1.50;;
10403;SDS011;5248;47.374;8.486;2023-03-23T14:55:41;1.88;;;1.77;;
10403;SDS011;5248;47.374;8.486;2023-03-23T14:58:11;2.22;;;2.08;;
10403;SDS011;5248;47.374;8.486;2023-03-23T15:00:40;1.77;;;1.67;;
10403;SDS011;5248;47.374;8.486;2023-03-23T15:03:10;2.17;;;1.80;;
10403;SDS011;5248;47.374;8.486;2023-03-23T15:05:41;1.90;;;1.63;;
10403;SDS011;5248;47.374;8.486;2023-03-23T15:08:19;2.42;;;1.92;;
10403;SDS011;5248;47.374;8.486;2023-03-23T15:10:52;1.70;;;1.60;;
10403;SDS011;5248;47.374;8.486;2023-03-23T15:13:20;4.00;;;1.80;;
10403;SDS011;5248;47.374;8.486;2023-03-23T15:15:46;2.58;;;1.88;;
10403;SDS011;5248;47.374;8.486;2023-03-23T15:18:32;4.25;;;1.70;;
10403;SDS011;5248;47.374;8.486;2023-03-23T15:21:07;6.53;;;2.13;;
10403;SDS011;5248;47.374;8.486;2023-03-23T15:23:40;1.85;;;1.65;;